sensor_id;sensor_type;location;lat;lon;timestamp;P1;durP1;ratioP1;P2;durP2;ratioP2
29026;SDS011;16120;48.608;9.092;2023-08-12T00:00:58;1.37;;;0.30;;
29026;SDS011;16120;48.608;9.092;2023-08-12T00:04:53;1.40;;;0.33;;
29026;SDS011;16120;48.608;9.092;2023-08-12T00:08:48;1.37;;;0.30;;
29026;SDS011;16120;48.608;9.092;2023-08-12T00:12:45;1.40;;;0.40;;
29026;SDS011;16120;48.608;9.092;2023-08-12T00:16:40;1.40;;;0.40;;
29026;SDS011;16120;48.608;9.092;2023-08-12T00:20:35;1.40;;;0.30;;
29026;SDS011;16120;48.608;9.092;2023-08-12T00:24:30;1.40;;;0.40;;
29026;SDS011;16120;48.608;9.092;2023-08-12T00:28:27;1.40;;;0.30;;
29026;SDS011;16120;48.608;9.092;2023-08-12T00:32:22;1.30;;;0.30;;
29026;SDS011;16120;48.608;9.092;2023-08-12T00:36:17;1.33;;;0.30;;
29026;SDS011;16120;48.608;9.092;2023-08-12T00:40:13;1.40;;;0.40;;
29026;SDS011;16120;48.608;9.092;2023-08-12T00:44:09;1.40;;;0.30;;
29026;SDS011;16120;48.608;9.092;2023-08-12T00:48:04;1.40;;;0.30;;
29026;SDS011;16120;48.608;9.092;2023-08-12T00:52:00;1.40;;;0.30;;
29026;SDS011;16120;48.608;9.092;2023-08-12T00:55:56;1.40;;;0.40;;
29026;SDS011;16120;48.608;9.092;2023-08-12T00:59:52;1.40;;;0.30;;
29026;SDS011;16120;48.608;9.092;2023-08-12T01:03:49;1.40;;;0.30;;
29026;SDS011;16120;48.608;9.092;2023-08-12T01:07:44;1.40;;;0.30;;
29026;SDS011;16120;48.608;9.092;2023-08-12T01:11:41;1.33;;;0.40;;
29026;SDS011;16120;48.608;9.092;2023-08-12T01:15:38;1.33;;;0.30;;
29026;SDS011;16120;48.608;9.092;2023-08-12T01:19:36;1.40;;;0.30;;
29026;SDS011;16120;48.608;9.092;2023-08-12T01:23:33;1.40;;;0.30;;
29026;SDS011;16120;48.608;9.092;2023-08-12T01:27:28;1.40;;;0.30;;
29026;SDS011;16120;48.608;9.092;2023-08-12T01:31:26;1.40;;;0.30;;
29026;SDS011;16120;48.608;9.092;2023-08-12T01:35:24;1.33;;;0.30;;
29026;SDS011;16120;48.608;9.092;2023-08-12T01:39:22;1.40;;;0.30;;
29026;SDS011;16120;48.608;9.092;2023-08-12T01:43:18;1.40;;;0.30;;
29026;SDS011;16120;48.608;9.092;2023-08-12T01:47:13;1.40;;;0.40;;
29026;SDS011;16120;48.608;9.092;2023-08-12T01:51:08;1.40;;;0.30;;
29026;SDS011;16120;48.608;9.092;2023-08-12T01:55:05;1.40;;;0.30;;
29026;SDS011;16120;48.608;9.092;2023-08-12T01:59:00;1.37;;;0.30;;
29026;SDS011;16120;48.608;9.092;2023-08-12T02:02:55;1.40;;;0.30;;
29026;SDS011;16120;48.608;9.092;2023-08-12T02:06:51;1.37;;;0.30;;
29026;SDS011;16120;48.608;9.092;2023-08-12T02:10:47;1.33;;;0.30;;
29026;SDS011;16120;48.608;9.092;2023-08-12T02:14:42;1.33;;;0.30;;
29026;SDS011;16120;48.608;9.092;2023-08-12T02:18:38;1.40;;;0.30;;
29026;SDS011;16120;48.608;9.092;2023-08-12T02:22:33;1.40;;;0.30;;
29026;SDS011;16120;48.608;9.092;2023-08-12T02:26:29;1.33;;;0.30;;
29026;SDS011;16120;48.608;9.092;2023-08-12T02:30:25;1.37;;;0.30;;
29026;SDS011;16120;48.608;9.092;2023-08-12T02:34:20;1.40;;;0.37;;
29026;SDS011;16120;48.608;9.092;2023-08-12T02:38:15;1.40;;;0.30;;
29026;SDS011;16120;48.608;9.092;2023-08-12T02:42:11;1.37;;;0.30;;
29026;SDS011;16120;48.608;9.092;2023-08-12T02:46:07;1.40;;;0.30;;
29026;SDS011;16120;48.608;9.092;2023-08-12T02:50:02;1.40;;;0.30;;
29026;SDS011;16120;48.608;9.092;2023-08-12T02:53:57;1.30;;;0.40;;
29026;SDS011;16120;48.608;9.092;2023-08-12T02:57:54;1.40;;;0.30;;
29026;SDS011;16120;48.608;9.092;2023-08-12T03:01:49;1.37;;;0.30;;
29026;SDS011;16120;48.608;9.092;2023-08-12T03:05:45;1.33;;;0.30;;
29026;SDS011;16120;48.608;9.092;2023-08-12T03:09:40;1.33;;;0.40;;
29026;SDS011;16120;48.608;9.092;2023-08-12T03:13:37;1.40;;;0.30;;
29026;SDS011;16120;48.608;9.092;2023-08-12T03:17:32;1.37;;;0.40;;
29026;SDS011;16120;48.608;9.092;2023-08-12T03:21:28;1.40;;;0.30;;
29026;SDS011;16120;48.608;9.092;2023-08-12T03:25:23;1.37;;;0.40;;
29026;SDS011;16120;48.608;9.092;2023-08-12T03:29:19;1.30;;;0.30;;
29026;SDS011;16120;48.608;9.092;2023-08-12T03:33:14;1.37;;;0.30;;
29026;SDS011;16120;48.608;9.092;2023-08-12T03:37:10;1.40;;;0.30;;
29026;SDS011;16120;48.608;9.092;2023-08-12T03:41:05;1.40;;;0.40;;
29026;SDS011;16120;48.608;9.092;2023-08-12T03:45:01;1.40;;;0.40;;
29026;SDS011;16120;48.608;9.092;2023-08-12T03:48:57;1.37;;;0.37;;
29026;SDS011;16120;48.608;9.092;2023-08-12T03:52:52;1.33;;;0.40;;
29026;SDS011;16120;48.608;9.092;2023-08-12T03:56:47;1.37;;;0.30;;
29026;SDS011;16120;48.608;9.092;2023-08-12T04:00:44;1.37;;;0.40;;
29026;SDS011;16120;48.608;9.092;2023-08-12T04:04:39;1.40;;;0.40;;
29026;SDS011;16120;48.608;9.092;2023-08-12T04:08:34;1.37;;;0.30;;
29026;SDS011;16120;48.608;9.092;2023-08-12T04:12:29;1.33;;;0.40;;
29026;SDS011;16120;48.608;9.092;2023-08-12T04:16:26;1.40;;;0.37;;
29026;SDS011;16120;48.608;9.092;2023-08-12T04:20:21;1.40;;;0.30;;
29026;SDS011;16120;48.608;9.092;2023-08-12T04:24:16;1.40;;;0.30;;
29026;SDS011;16120;48.608;9.092;2023-08-12T04:28:11;1.33;;;0.30;;
29026;SDS011;16120;48.608;9.092;2023-08-12T04:32:08;1.40;;;0.40;;
29026;SDS011;16120;48.608;9.092;2023-08-12T04:36:03;1.37;;;0.30;;
29026;SDS011;16120;48.608;9.092;2023-08-12T04:39:59;1.40;;;0.40;;
29026;SDS011;16120;48.608;9.092;2023-08-12T04:43:54;1.37;;;0.30;;
29026;SDS011;16120;48.608;9.092;2023-08-12T04:47:50;1.40;;;0.33;;
29026;SDS011;16120;48.608;9.092;2023-08-12T04:51:46;1.40;;;0.30;;
29026;SDS011;16120;48.608;9.092;2023-08-12T04:55:41;1.33;;;0.30;;
29026;SDS011;16120;48.608;9.092;2023-08-12T04:59:36;1.37;;;0.30;;
29026;SDS011;16120;48.608;9.092;2023-08-12T05:03:33;1.40;;;0.30;;
29026;SDS011;16120;48.608;9.092;2023-08-12T05:07:28;1.40;;;0.30;;
29026;SDS011;16120;48.608;9.092;2023-08-12T05:11:23;1.40;;;0.40;;
29026;SDS011;16120;48.608;9.092;2023-08-12T05:15:18;1.40;;;0.40;;
29026;SDS011;16120;48.608;9.092;2023-08-12T05:19:15;1.40;;;0.40;;
29026;SDS011;16120;48.608;9.092;2023-08-12T05:23:10;1.40;;;0.30;;
29026;SDS011;16120;48.608;9.092;2023-08-12T05:27:05;1.40;;;0.30;;
29026;SDS011;16120;48.608;9.092;2023-08-12T05:31:00;1.40;;;0.30;;
29026;SDS011;16120;48.608;9.092;2023-08-12T05:34:57;1.40;;;0.30;;
29026;SDS011;16120;48.608;9.092;2023-08-12T05:38:52;1.40;;;0.30;;
29026;SDS011;16120;48.608;9.092;2023-08-12T05:42:47;1.37;;;0.30;;
29026;SDS011;16120;48.608;9.092;2023-08-12T05:46:43;1.40;;;0.30;;
29026;SDS011;16120;48.608;9.092;2023-08-12T05:50:39;1.40;;;0.30;;
29026;SDS011;16120;48.608;9.092;2023-08-12T05:54:34;1.40;;;0.40;;
29026;SDS011;16120;48.608;9.092;2023-08-12T05:58:29;1.37;;;0.30;;
29026;SDS011;16120;48.608;9.092;2023-08-12T06:02:25;1.37;;;0.33;;
29026;SDS011;16120;48.608;9.092;2023-08-12T06:06:22;1.40;;;0.30;;
29026;SDS011;16120;48.608;9.092;2023-08-12T06:10:18;1.37;;;0.30;;
29026;SDS011;16120;48.608;9.092;2023-08-12T06:14:13;1.40;;;0.30;;
29026;SDS011;16120;48.608;9.092;2023-08-12T06:18:08;1.40;;;0.40;;
29026;SDS011;16120;48.608;9.092;2023-08-12T06:22:05;1.40;;;0.40;;
29026;SDS011;16120;48.608;9.092;2023-08-12T06:26:00;1.40;;;0.30;;
29026;SDS011;16120;48.608;9.092;2023-08-12T06:29:55;1.40;;;0.40;;
29026;SDS011;16120;48.608;9.092;2023-08-12T06:33:50;1.40;;;0.40;;
29026;SDS011;16120;48.608;9.092;2023-08-12T06:37:47;1.43;;;0.40;;
29026;SDS011;16120;48.608;9.092;2023-08-12T06:41:42;1.50;;;0.40;;
29026;SDS011;16120;48.608;9.092;2023-08-12T06:45:37;1.43;;;0.40;;
29026;SDS011;16120;48.608;9.092;2023-08-12T06:49:32;1.40;;;0.30;;
29026;SDS011;16120;48.608;9.092;2023-08-12T06:53:29;1.40;;;0.40;;
29026;SDS011;16120;48.608;9.092;2023-08-12T06:57:24;1.40;;;0.40;;
29026;SDS011;16120;48.608;9.092;2023-08-12T07:01:20;1.40;;;0.40;;
29026;SDS011;16120;48.608;9.092;2023-08-12T07:05:15;1.47;;;0.40;;
29026;SDS011;16120;48.608;9.092;2023-08-12T07:09:11;1.50;;;0.40;;
29026;SDS011;16120;48.608;9.092;2023-08-12T07:13:07;1.40;;;0.33;;
29026;SDS011;16120;48.608;9.092;2023-08-12T07:17:02;1.43;;;0.40;;
29026;SDS011;16120;48.608;9.092;2023-08-12T07:20:57;1.40;;;0.40;;
29026;SDS011;16120;48.608;9.092;2023-08-12T07:24:53;1.47;;;0.40;;
29026;SDS011;16120;48.608;9.092;2023-08-12T07:28:49;1.47;;;0.40;;
29026;SDS011;16120;48.608;9.092;2023-08-12T07:32:44;1.40;;;0.40;;
29026;SDS011;16120;48.608;9.092;2023-08-12T07:36:39;1.47;;;0.40;;
29026;SDS011;16120;48.608;9.092;2023-08-12T07:40:36;1.43;;;0.30;;
29026;SDS011;16120;48.608;9.092;2023-08-12T07:44:31;1.47;;;0.40;;
29026;SDS011;16120;48.608;9.092;2023-08-12T07:48:26;1.47;;;0.40;;
29026;SDS011;16120;48.608;9.092;2023-08-12T07:52:21;1.43;;;0.40;;
29026;SDS011;16120;48.608;9.092;2023-08-12T07:56:18;1.43;;;0.30;;
29026;SDS011;16120;48.608;9.092;2023-08-12T08:00:13;1.50;;;0.40;;
29026;SDS011;16120;48.608;9.092;2023-08-12T08:04:08;1.40;;;0.40;;
29026;SDS011;16120;48.608;9.092;2023-08-12T08:08:04;1.50;;;0.30;;
29026;SDS011;16120;48.608;9.092;2023-08-12T08:12:00;1.47;;;0.40;;
29026;SDS011;16120;48.608;9.092;2023-08-12T08:15:55;1.50;;;0.40;;
29026;SDS011;16120;48.608;9.092;2023-08-12T08:19:51;1.50;;;0.40;;
29026;SDS011;16120;48.608;9.092;2023-08-12T08:23:46;1.47;;;0.40;;
29026;SDS011;16120;48.608;9.092;2023-08-12T08:27:42;1.47;;;0.40;;
29026;SDS011;16120;48.608;9.092;2023-08-12T08:31:38;1.50;;;0.30;;
29026;SDS011;16120;48.608;9.092;2023-08-12T08:35:33;1.50;;;0.40;;
29026;SDS011;16120;48.608;9.092;2023-08-12T08:39:28;1.43;;;0.30;;
29026;SDS011;16120;48.608;9.092;2023-08-12T08:43:25;1.50;;;0.40;;
29026;SDS011;16120;48.608;9.092;2023-08-12T08:47:25;1.50;;;0.30;;
29026;SDS011;16120;48.608;9.092;2023-08-12T08:51:20;1.50;;;0.30;;
29026;SDS011;16120;48.608;9.092;2023-08-12T08:55:15;1.50;;;0.40;;
29026;SDS011;16120;48.608;9.092;2023-08-12T08:59:13;1.47;;;0.30;;
29026;SDS011;16120;48.608;9.092;2023-08-12T09:03:08;1.43;;;0.40;;
29026;SDS011;16120;48.608;9.092;2023-08-12T09:07:04;1.50;;;0.30;;
29026;SDS011;16120;48.608;9.092;2023-08-12T09:10:59;1.47;;;0.30;;
29026;SDS011;16120;48.608;9.092;2023-08-12T09:14:56;1.47;;;0.30;;
29026;SDS011;16120;48.608;9.092;2023-08-12T09:18:54;1.47;;;0.30;;
29026;SDS011;16120;48.608;9.092;2023-08-12T09:22:55;1.47;;;0.30;;
29026;SDS011;16120;48.608;9.092;2023-08-12T09:26:51;1.47;;;0.40;;
29026;SDS011;16120;48.608;9.092;2023-08-12T09:30:50;1.47;;;0.30;;
29026;SDS011;16120;48.608;9.092;2023-08-12T09:34:46;1.47;;;0.40;;
29026;SDS011;16120;48.608;9.092;2023-08-12T09:38:41;1.50;;;0.30;;
29026;SDS011;16120;48.608;9.092;2023-08-12T09:42:42;1.43;;;0.30;;
29026;SDS011;16120;48.608;9.092;2023-08-12T09:46:40;1.47;;;0.30;;
29026;SDS011;16120;48.608;9.092;2023-08-12T09:50:35;1.40;;;0.30;;
29026;SDS011;16120;48.608;9.092;2023-08-12T09:54:31;1.50;;;0.30;;
29026;SDS011;16120;48.608;9.092;2023-08-12T09:58:26;1.47;;;0.30;;
29026;SDS011;16120;48.608;9.092;2023-08-12T10:02:23;1.47;;;0.30;;
29026;SDS011;16120;48.608;9.092;2023-08-12T10:06:18;1.47;;;0.40;;
29026;SDS011;16120;48.608;9.092;2023-08-12T10:10:14;1.47;;;0.30;;
29026;SDS011;16120;48.608;9.092;2023-08-12T10:14:09;1.47;;;0.30;;
29026;SDS011;16120;48.608;9.092;2023-08-12T10:18:06;1.40;;;0.30;;
29026;SDS011;16120;48.608;9.092;2023-08-12T10:22:02;1.40;;;0.30;;
29026;SDS011;16120;48.608;9.092;2023-08-12T10:25:58;1.40;;;0.30;;
29026;SDS011;16120;48.608;9.092;2023-08-12T10:29:55;1.47;;;0.40;;
29026;SDS011;16120;48.608;9.092;2023-08-12T10:33:52;1.43;;;0.40;;
29026;SDS011;16120;48.608;9.092;2023-08-12T10:37:48;1.47;;;0.40;;
29026;SDS011;16120;48.608;9.092;2023-08-12T10:41:49;1.50;;;0.40;;
29026;SDS011;16120;48.608;9.092;2023-08-12T10:45:47;1.47;;;0.40;;
29026;SDS011;16120;48.608;9.092;2023-08-12T10:49:43;1.47;;;0.40;;
29026;SDS011;16120;48.608;9.092;2023-08-12T10:53:42;1.47;;;0.30;;
29026;SDS011;16120;48.608;9.092;2023-08-12T10:57:40;1.50;;;0.30;;
29026;SDS011;16120;48.608;9.092;2023-08-12T11:01:38;1.47;;;0.30;;
29026;SDS011;16120;48.608;9.092;2023-08-12T11:05:37;1.50;;;0.40;;
29026;SDS011;16120;48.608;9.092;2023-08-12T11:09:32;1.47;;;0.30;;
29026;SDS011;16120;48.608;9.092;2023-08-12T11:13:29;1.43;;;0.40;;
29026;SDS011;16120;48.608;9.092;2023-08-12T11:17:27;1.47;;;0.40;;
29026;SDS011;16120;48.608;9.092;2023-08-12T11:21:24;1.43;;;0.40;;
29026;SDS011;16120;48.608;9.092;2023-08-12T11:25:20;1.47;;;0.30;;
29026;SDS011;16120;48.608;9.092;2023-08-12T11:29:15;1.47;;;0.30;;
29026;SDS011;16120;48.608;9.092;2023-08-12T11:33:11;1.43;;;0.30;;
29026;SDS011;16120;48.608;9.092;2023-08-12T11:37:07;1.43;;;0.30;;
29026;SDS011;16120;48.608;9.092;2023-08-12T11:41:03;1.50;;;0.30;;
29026;SDS011;16120;48.608;9.092;2023-08-12T11:44:58;1.43;;;0.30;;
29026;SDS011;16120;48.608;9.092;2023-08-12T11:48:53;1.47;;;0.30;;
29026;SDS011;16120;48.608;9.092;2023-08-12T11:52:50;1.47;;;0.40;;
29026;SDS011;16120;48.608;9.092;2023-08-12T11:56:46;1.50;;;0.40;;
29026;SDS011;16120;48.608;9.092;2023-08-12T12:00:41;1.43;;;0.30;;
29026;SDS011;16120;48.608;9.092;2023-08-12T12:04:36;1.50;;;0.30;;
29026;SDS011;16120;48.608;9.092;2023-08-12T12:08:33;1.50;;;0.40;;
29026;SDS011;16120;48.608;9.092;2023-08-12T12:12:28;1.47;;;0.30;;
29026;SDS011;16120;48.608;9.092;2023-08-12T12:16:24;1.47;;;0.30;;
29026;SDS011;16120;48.608;9.092;2023-08-12T12:20:19;1.47;;;0.30;;
29026;SDS011;16120;48.608;9.092;2023-08-12T12:24:15;1.43;;;0.30;;
29026;SDS011;16120;48.608;9.092;2023-08-12T12:28:11;1.47;;;0.30;;
29026;SDS011;16120;48.608;9.092;2023-08-12T12:32:06;1.47;;;0.30;;
29026;SDS011;16120;48.608;9.092;2023-08-12T12:36:01;1.48;;;0.30;;
29026;SDS011;16120;48.608;9.092;2023-08-12T12:39:58;1.47;;;0.30;;
29026;SDS011;16120;48.608;9.092;2023-08-12T12:43:55;1.50;;;0.30;;
29026;SDS011;16120;48.608;9.092;2023-08-12T12:51:55;1.50;;;0.30;;
29026;SDS011;16120;48.608;9.092;2023-08-12T12:55:52;1.47;;;0.30;;
29026;SDS011;16120;48.608;9.092;2023-08-12T12:59:47;1.47;;;0.30;;
29026;SDS011;16120;48.608;9.092;2023-08-12T13:03:42;1.47;;;0.30;;
29026;SDS011;16120;48.608;9.092;2023-08-12T13:07:37;1.50;;;0.30;;
29026;SDS011;16120;48.608;9.092;2023-08-12T13:11:34;1.43;;;0.30;;
29026;SDS011;16120;48.608;9.092;2023-08-12T13:15:29;1.50;;;0.30;;
29026;SDS011;16120;48.608;9.092;2023-08-12T13:19:24;1.43;;;0.30;;
29026;SDS011;16120;48.608;9.092;2023-08-12T13:23:20;1.50;;;0.30;;
29026;SDS011;16120;48.608;9.092;2023-08-12T13:27:16;1.47;;;0.30;;
29026;SDS011;16120;48.608;9.092;2023-08-12T13:31:11;1.40;;;0.30;;
29026;SDS011;16120;48.608;9.092;2023-08-12T13:35:07;1.50;;;0.30;;
29026;SDS011;16120;48.608;9.092;2023-08-12T13:39:02;1.50;;;0.40;;
29026;SDS011;16120;48.608;9.092;2023-08-12T13:42:59;1.50;;;0.40;;
29026;SDS011;16120;48.608;9.092;2023-08-12T13:46:54;1.43;;;0.40;;
29026;SDS011;16120;48.608;9.092;2023-08-12T13:50:49;1.50;;;0.40;;
29026;SDS011;16120;48.608;9.092;2023-08-12T13:54:44;1.43;;;0.30;;
29026;SDS011;16120;48.608;9.092;2023-08-12T13:58:41;1.47;;;0.40;;
29026;SDS011;16120;48.608;9.092;2023-08-12T14:02:36;1.47;;;0.30;;
29026;SDS011;16120;48.608;9.092;2023-08-12T14:06:31;1.43;;;0.30;;
29026;SDS011;16120;48.608;9.092;2023-08-12T14:10:26;1.43;;;0.30;;
29026;SDS011;16120;48.608;9.092;2023-08-12T14:14:23;1.43;;;0.30;;
29026;SDS011;16120;48.608;9.092;2023-08-12T14:18:19;1.43;;;0.30;;
29026;SDS011;16120;48.608;9.092;2023-08-12T14:22:14;1.40;;;0.40;;
29026;SDS011;16120;48.608;9.092;2023-08-12T14:26:09;1.43;;;0.30;;
29026;SDS011;16120;48.608;9.092;2023-08-12T14:30:07;1.47;;;0.40;;
29026;SDS011;16120;48.608;9.092;2023-08-12T14:34:02;1.43;;;0.40;;
29026;SDS011;16120;48.608;9.092;2023-08-12T14:37:57;1.40;;;0.30;;
29026;SDS011;16120;48.608;9.092;2023-08-12T14:41:52;1.47;;;0.40;;
29026;SDS011;16120;48.608;9.092;2023-08-12T14:45:49;1.48;;;0.30;;
29026;SDS011;16120;48.608;9.092;2023-08-12T14:49:44;1.43;;;0.30;;
29026;SDS011;16120;48.608;9.092;2023-08-12T14:53:39;1.43;;;0.30;;
29026;SDS011;16120;48.608;9.092;2023-08-12T14:57:35;1.47;;;0.30;;
29026;SDS011;16120;48.608;9.092;2023-08-12T15:01:31;1.47;;;0.30;;
29026;SDS011;16120;48.608;9.092;2023-08-12T15:05:26;1.43;;;0.30;;
29026;SDS011;16120;48.608;9.092;2023-08-12T15:09:22;1.43;;;0.30;;
29026;SDS011;16120;48.608;9.092;2023-08-12T15:13:17;1.47;;;0.30;;
29026;SDS011;16120;48.608;9.092;2023-08-12T15:17:13;1.43;;;0.40;;
29026;SDS011;16120;48.608;9.092;2023-08-12T15:21:09;1.47;;;0.30;;
29026;SDS011;16120;48.608;9.092;2023-08-12T15:25:04;1.43;;;0.40;;
29026;SDS011;16120;48.608;9.092;2023-08-12T15:29:00;1.50;;;0.30;;
29026;SDS011;16120;48.608;9.092;2023-08-12T15:32:56;1.43;;;0.30;;
29026;SDS011;16120;48.608;9.092;2023-08-12T15:36:51;1.40;;;0.30;;
29026;SDS011;16120;48.608;9.092;2023-08-12T15:40:47;1.47;;;0.30;;
29026;SDS011;16120;48.608;9.092;2023-08-12T15:44:42;1.43;;;0.30;;
29026;SDS011;16120;48.608;9.092;2023-08-12T15:48:38;1.43;;;0.30;;
29026;SDS011;16120;48.608;9.092;2023-08-12T15:52:34;1.50;;;0.40;;
29026;SDS011;16120;48.608;9.092;2023-08-12T15:56:29;1.47;;;0.30;;
29026;SDS011;16120;48.608;9.092;2023-08-12T16:00:24;1.43;;;0.30;;
29026;SDS011;16120;48.608;9.092;2023-08-12T16:04:21;1.47;;;0.30;;
29026;SDS011;16120;48.608;9.092;2023-08-12T16:08:16;1.50;;;0.30;;
29026;SDS011;16120;48.608;9.092;2023-08-12T16:12:12;1.43;;;0.30;;
29026;SDS011;16120;48.608;9.092;2023-08-12T16:16:07;1.50;;;0.30;;
29026;SDS011;16120;48.608;9.092;2023-08-12T16:20:04;1.40;;;0.30;;
29026;SDS011;16120;48.608;9.092;2023-08-12T16:23:59;1.50;;;0.30;;
29026;SDS011;16120;48.608;9.092;2023-08-12T16:27:55;1.50;;;0.30;;
29026;SDS011;16120;48.608;9.092;2023-08-12T16:31:50;1.50;;;0.30;;
29026;SDS011;16120;48.608;9.092;2023-08-12T16:35:46;1.50;;;0.30;;
29026;SDS011;16120;48.608;9.092;2023-08-12T16:39:42;1.50;;;0.30;;
29026;SDS011;16120;48.608;9.092;2023-08-12T16:43:37;1.43;;;0.30;;
29026;SDS011;16120;48.608;9.092;2023-08-12T16:47:32;1.50;;;0.30;;
29026;SDS011;16120;48.608;9.092;2023-08-12T16:51:29;1.50;;;0.30;;
29026;SDS011;16120;48.608;9.092;2023-08-12T16:55:24;1.50;;;0.30;;
29026;SDS011;16120;48.608;9.092;2023-08-12T16:59:19;1.47;;;0.30;;
29026;SDS011;16120;48.608;9.092;2023-08-12T17:03:15;1.50;;;0.30;;
29026;SDS011;16120;48.608;9.092;2023-08-12T17:07:11;1.50;;;0.30;;
29026;SDS011;16120;48.608;9.092;2023-08-12T17:11:06;1.50;;;0.30;;
29026;SDS011;16120;48.608;9.092;2023-08-12T17:15:03;1.50;;;0.30;;
29026;SDS011;16120;48.608;9.092;2023-08-12T17:18:58;1.50;;;0.30;;
29026;SDS011;16120;48.608;9.092;2023-08-12T17:22:55;1.50;;;0.30;;
29026;SDS011;16120;48.608;9.092;2023-08-12T17:26:50;1.50;;;0.30;;
29026;SDS011;16120;48.608;9.092;2023-08-12T17:30:45;1.50;;;0.30;;
29026;SDS011;16120;48.608;9.092;2023-08-12T17:34:40;1.50;;;0.30;;
29026;SDS011;16120;48.608;9.092;2023-08-12T17:38:37;1.50;;;0.30;;
29026;SDS011;16120;48.608;9.092;2023-08-12T17:42:32;1.50;;;0.30;;
29026;SDS011;16120;48.608;9.092;2023-08-12T17:46:27;1.50;;;0.30;;
29026;SDS011;16120;48.608;9.092;2023-08-12T17:50:23;1.50;;;0.30;;
29026;SDS011;16120;48.608;9.092;2023-08-12T17:54:19;1.50;;;0.30;;
29026;SDS011;16120;48.608;9.092;2023-08-12T17:58:15;1.50;;;0.30;;
29026;SDS011;16120;48.608;9.092;2023-08-12T18:02:10;1.50;;;0.30;;
29026;SDS011;16120;48.608;9.092;2023-08-12T18:06:05;1.50;;;0.30;;
29026;SDS011;16120;48.608;9.092;2023-08-12T18:10:02;1.50;;;0.30;;
29026;SDS011;16120;48.608;9.092;2023-08-12T18:13:58;1.50;;;0.30;;
29026;SDS011;16120;48.608;9.092;2023-08-12T18:17:53;1.43;;;0.30;;
29026;SDS011;16120;48.608;9.092;2023-08-12T18:21:48;1.50;;;0.40;;
29026;SDS011;16120;48.608;9.092;2023-08-12T18:25:45;1.47;;;0.30;;
29026;SDS011;16120;48.608;9.092;2023-08-12T18:29:40;1.50;;;0.30;;
29026;SDS011;16120;48.608;9.092;2023-08-12T18:33:35;1.50;;;0.30;;
29026;SDS011;16120;48.608;9.092;2023-08-12T18:37:30;1.47;;;0.30;;
29026;SDS011;16120;48.608;9.092;2023-08-12T18:41:27;1.50;;;0.30;;
29026;SDS011;16120;48.608;9.092;2023-08-12T18:45:22;1.47;;;0.30;;
29026;SDS011;16120;48.608;9.092;2023-08-12T18:49:17;1.50;;;0.30;;
29026;SDS011;16120;48.608;9.092;2023-08-12T18:53:12;1.50;;;0.30;;
29026;SDS011;16120;48.608;9.092;2023-08-12T18:57:09;1.50;;;0.30;;
29026;SDS011;16120;48.608;9.092;2023-08-12T19:01:04;1.50;;;0.30;;
29026;SDS011;16120;48.608;9.092;2023-08-12T19:04:59;1.50;;;0.30;;
29026;SDS011;16120;48.608;9.092;2023-08-12T19:08:55;1.50;;;0.30;;
29026;SDS011;16120;48.608;9.092;2023-08-12T19:12:51;1.50;;;0.30;;
29026;SDS011;16120;48.608;9.092;2023-08-12T19:16:46;1.50;;;0.30;;
29026;SDS011;16120;48.608;9.092;2023-08-12T19:20:42;1.50;;;0.30;;
29026;SDS011;16120;48.608;9.092;2023-08-12T19:24:37;1.50;;;0.30;;
29026;SDS011;16120;48.608;9.092;2023-08-12T19:28:33;1.50;;;0.30;;
29026;SDS011;16120;48.608;9.092;2023-08-12T19:32:28;1.50;;;0.30;;
29026;SDS011;16120;48.608;9.092;2023-08-12T19:36:24;1.50;;;0.30;;
29026;SDS011;16120;48.608;9.092;2023-08-12T19:40:19;1.50;;;0.30;;
29026;SDS011;16120;48.608;9.092;2023-08-12T19:44:15;1.50;;;0.30;;
29026;SDS011;16120;48.608;9.092;2023-08-12T19:48:11;1.50;;;0.30;;
29026;SDS011;16120;48.608;9.092;2023-08-12T19:52:06;1.50;;;0.30;;
29026;SDS011;16120;48.608;9.092;2023-08-12T19:56:01;1.50;;;0.30;;
29026;SDS011;16120;48.608;9.092;2023-08-12T19:59:58;1.50;;;0.30;;
29026;SDS011;16120;48.608;9.092;2023-08-12T20:03:53;1.50;;;0.30;;
29026;SDS011;16120;48.608;9.092;2023-08-12T20:07:48;1.50;;;0.30;;
29026;SDS011;16120;48.608;9.092;2023-08-12T20:11:43;1.50;;;0.40;;
29026;SDS011;16120;48.608;9.092;2023-08-12T20:15:40;1.50;;;0.30;;
29026;SDS011;16120;48.608;9.092;2023-08-12T20:19:35;1.50;;;0.30;;
29026;SDS011;16120;48.608;9.092;2023-08-12T20:23:30;1.50;;;0.30;;
29026;SDS011;16120;48.608;9.092;2023-08-12T20:27:26;1.50;;;0.30;;
29026;SDS011;16120;48.608;9.092;2023-08-12T20:31:22;1.50;;;0.30;;
29026;SDS011;16120;48.608;9.092;2023-08-12T20:35:17;1.50;;;0.30;;
29026;SDS011;16120;48.608;9.092;2023-08-12T20:39:13;1.50;;;0.30;;
29026;SDS011;16120;48.608;9.092;2023-08-12T20:43:08;1.50;;;0.30;;
29026;SDS011;16120;48.608;9.092;2023-08-12T20:47:04;1.50;;;0.30;;
29026;SDS011;16120;48.608;9.092;2023-08-12T20:51:00;1.50;;;0.33;;
29026;SDS011;16120;48.608;9.092;2023-08-12T20:54:55;1.50;;;0.30;;
29026;SDS011;16120;48.608;9.092;2023-08-12T20:58:50;1.50;;;0.30;;
29026;SDS011;16120;48.608;9.092;2023-08-12T21:02:47;1.50;;;0.30;;
29026;SDS011;16120;48.608;9.092;2023-08-12T21:06:42;1.50;;;0.30;;
29026;SDS011;16120;48.608;9.092;2023-08-12T21:10:37;1.50;;;0.30;;
29026;SDS011;16120;48.608;9.092;2023-08-12T21:14:33;1.50;;;0.30;;
29026;SDS011;16120;48.608;9.092;2023-08-12T21:18:29;1.50;;;0.30;;
29026;SDS011;16120;48.608;9.092;2023-08-12T21:22:25;1.50;;;0.30;;
29026;SDS011;16120;48.608;9.092;2023-08-12T21:26:20;1.50;;;0.30;;
29026;SDS011;16120;48.608;9.092;2023-08-12T21:30:15;1.50;;;0.30;;
29026;SDS011;16120;48.608;9.092;2023-08-12T21:34:12;1.50;;;0.30;;
29026;SDS011;16120;48.608;9.092;2023-08-12T21:38:07;1.50;;;0.30;;
29026;SDS011;16120;48.608;9.092;2023-08-12T21:42:02;1.47;;;0.30;;
29026;SDS011;16120;48.608;9.092;2023-08-12T21:45:57;1.50;;;0.30;;
29026;SDS011;16120;48.608;9.092;2023-08-12T21:49:54;1.50;;;0.30;;
29026;SDS011;16120;48.608;9.092;2023-08-12T21:53:49;1.50;;;0.30;;
29026;SDS011;16120;48.608;9.092;2023-08-12T21:57:44;1.50;;;0.30;;
29026;SDS011;16120;48.608;9.092;2023-08-12T22:01:40;1.50;;;0.30;;
29026;SDS011;16120;48.608;9.092;2023-08-12T22:05:36;1.50;;;0.30;;
29026;SDS011;16120;48.608;9.092;2023-08-12T22:09:31;1.50;;;0.30;;
29026;SDS011;16120;48.608;9.092;2023-08-12T22:13:27;1.50;;;0.30;;
29026;SDS011;16120;48.608;9.092;2023-08-12T22:17:22;1.50;;;0.30;;
29026;SDS011;16120;48.608;9.092;2023-08-12T22:21:18;1.50;;;0.30;;
29026;SDS011;16120;48.608;9.092;2023-08-12T22:25:14;1.50;;;0.30;;
29026;SDS011;16120;48.608;9.092;2023-08-12T22:29:09;1.50;;;0.30;;
29026;SDS011;16120;48.608;9.092;2023-08-12T22:33:04;1.50;;;0.30;;
29026;SDS011;16120;48.608;9.092;2023-08-12T22:37:01;1.50;;;0.30;;
29026;SDS011;16120;48.608;9.092;2023-08-12T22:40:56;1.50;;;0.30;;
29026;SDS011;16120;48.608;9.092;2023-08-12T22:44:51;1.50;;;0.30;;
29026;SDS011;16120;48.608;9.092;2023-08-12T22:48:46;1.50;;;0.30;;
29026;SDS011;16120;48.608;9.092;2023-08-12T22:52:43;1.50;;;0.30;;
29026;SDS011;16120;48.608;9.092;2023-08-12T22:56:38;1.50;;;0.30;;
29026;SDS011;16120;48.608;9.092;2023-08-12T23:00:33;1.50;;;0.30;;
29026;SDS011;16120;48.608;9.092;2023-08-12T23:04:28;1.50;;;0.30;;
29026;SDS011;16120;48.608;9.092;2023-08-12T23:08:25;1.50;;;0.30;;
29026;SDS011;16120;48.608;9.092;2023-08-12T23:12:20;1.50;;;0.30;;
29026;SDS011;16120;48.608;9.092;2023-08-12T23:16:15;1.50;;;0.30;;
29026;SDS011;16120;48.608;9.092;2023-08-12T23:20:11;1.50;;;0.30;;
29026;SDS011;16120;48.608;9.092;2023-08-12T23:24:07;1.50;;;0.30;;
29026;SDS011;16120;48.608;9.092;2023-08-12T23:28:03;1.50;;;0.40;;
29026;SDS011;16120;48.608;9.092;2023-08-12T23:31:58;1.50;;;0.30;;
29026;SDS011;16120;48.608;9.092;2023-08-12T23:35:53;1.50;;;0.30;;
29026;SDS011;16120;48.608;9.092;2023-08-12T23:39:50;1.50;;;0.30;;
29026;SDS011;16120;48.608;9.092;2023-08-12T23:43:45;1.50;;;0.37;;